createdAt,value
2018-07-03T00:02:17.827Z,1.97
2018-07-03T00:04:47.162Z,5.03
2018-07-03T00:07:16.370Z,4.10
2018-07-03T00:09:45.644Z,1.57
2018-07-03T00:12:14.925Z,3.00
2018-07-03T00:14:44.103Z,2.13
2018-07-03T00:17:16.865Z,1.87
2018-07-03T00:19:49.393Z,2.47
2018-07-03T00:22:19.313Z,4.93
2018-07-03T00:24:48.558Z,1.90
2018-07-03T00:27:19.376Z,1.47
2018-07-03T00:29:48.560Z,2.90
2018-07-03T00:32:17.744Z,4.00
2018-07-03T00:34:46.933Z,1.50
2018-07-03T00:37:16.111Z,5.33
2018-07-03T00:39:45.369Z,2.10
2018-07-03T00:42:14.539Z,1.90
2018-07-03T00:44:43.660Z,2.23
2018-07-03T00:47:12.860Z,3.17
2018-07-03T00:49:42.045Z,1.77
2018-07-03T00:52:11.335Z,2.33
2018-07-03T00:54:40.516Z,3.03
2018-07-03T00:57:09.832Z,2.13
2018-07-03T00:59:50.490Z,1.97
2018-07-03T01:02:19.773Z,1.90
2018-07-03T01:04:49.068Z,2.33
2018-07-03T01:07:18.247Z,2.37
2018-07-03T01:09:47.657Z,1.67
2018-07-03T01:12:16.832Z,2.40
2018-07-03T01:14:45.969Z,2.50
2018-07-03T01:17:15.808Z,3.90
2018-07-03T01:19:45.077Z,3.40
2018-07-03T01:22:14.320Z,2.70
2018-07-03T01:24:43.469Z,2.33
2018-07-03T01:27:12.792Z,2.97
2018-07-03T01:29:41.916Z,2.37
2018-07-03T01:32:11.097Z,3.10
2018-07-03T01:34:40.293Z,3.63
2018-07-03T01:37:09.471Z,3.47
2018-07-03T01:39:38.609Z,5.73
2018-07-03T01:42:07.840Z,4.53
2018-07-03T01:44:36.968Z,3.30
2018-07-03T01:47:06.291Z,2.50
2018-07-03T01:49:35.440Z,5.43
2018-07-03T01:52:04.654Z,3.73
2018-07-03T01:54:33.873Z,2.60
2018-07-03T01:57:03.114Z,2.60
2018-07-03T01:59:32.292Z,4.00
2018-07-03T02:02:01.636Z,3.70
2018-07-03T02:04:30.937Z,3.40
2018-07-03T02:07:00.112Z,4.80
2018-07-03T02:09:29.316Z,2.80
2018-07-03T02:11:58.838Z,2.57
2018-07-03T02:14:28.254Z,2.20
2018-07-03T02:16:57.412Z,2.00
2018-07-03T02:19:26.684Z,4.90
2018-07-03T02:21:56.043Z,3.03
2018-07-03T02:24:25.253Z,3.03
2018-07-03T02:26:54.428Z,3.90
2018-07-03T02:29:23.568Z,3.47
2018-07-03T02:31:52.781Z,3.67
2018-07-03T02:34:22.365Z,3.63
2018-07-03T02:36:51.985Z,2.27
2018-07-03T02:39:21.759Z,3.60
2018-07-03T02:41:51.502Z,3.77
2018-07-03T02:44:21.209Z,2.80
2018-07-03T02:46:50.933Z,3.27
2018-07-03T02:49:20.776Z,2.23
2018-07-03T02:51:50.435Z,3.33
2018-07-03T02:54:20.149Z,3.07
2018-07-03T02:56:49.953Z,1.83
2018-07-03T02:59:20.291Z,1.80
2018-07-03T03:01:50.077Z,3.03
2018-07-03T03:04:19.809Z,4.17
2018-07-03T03:06:49.519Z,2.63
2018-07-03T03:09:19.336Z,2.30
2018-07-03T03:11:48.944Z,2.10
2018-07-03T03:14:18.511Z,4.57
2018-07-03T03:16:48.260Z,4.33
2018-07-03T03:19:17.837Z,6.90
2018-07-03T03:21:47.659Z,2.57
2018-07-03T03:24:17.233Z,2.30
2018-07-03T03:26:47.004Z,2.77
2018-07-03T03:29:16.615Z,3.23
2018-07-03T03:31:46.316Z,2.00
2018-07-03T03:34:16.208Z,3.67
2018-07-03T03:36:45.935Z,4.27
2018-07-03T03:39:15.615Z,2.57
2018-07-03T03:41:45.412Z,3.30
2018-07-03T03:44:15.024Z,3.43
2018-07-03T03:46:44.721Z,4.67
2018-07-03T03:49:14.300Z,2.43
2018-07-03T03:51:44.051Z,3.97
2018-07-03T03:54:13.788Z,4.03
2018-07-03T03:56:43.565Z,4.57
2018-07-03T03:59:13.345Z,3.27
2018-07-03T04:01:42.993Z,4.90
2018-07-03T04:04:12.704Z,2.77
2018-07-03T04:06:42.468Z,2.40
2018-07-03T04:09:12.457Z,3.27
2018-07-03T04:11:42.139Z,5.70
2018-07-03T04:14:11.872Z,2.67
2018-07-03T04:16:41.549Z,3.70
2018-07-03T04:19:11.465Z,5.43
2018-07-03T04:21:41.174Z,7.70
2018-07-03T04:24:10.327Z,4.20
2018-07-03T04:26:39.451Z,3.60
2018-07-03T04:29:08.809Z,4.83
2018-07-03T04:31:38.172Z,2.50
2018-07-03T04:34:07.615Z,3.40
2018-07-03T04:36:37.035Z,3.37
2018-07-03T04:39:08.941Z,2.77
2018-07-03T04:41:38.439Z,4.83
2018-07-03T04:44:07.839Z,3.10
2018-07-03T04:46:37.241Z,3.67
2018-07-03T04:49:06.646Z,3.43
2018-07-03T04:51:36.052Z,2.80
2018-07-03T04:54:05.450Z,4.60
2018-07-03T04:56:34.849Z,2.70
2018-07-03T04:59:04.566Z,5.57
2018-07-03T05:01:34.062Z,2.70
2018-07-03T05:04:03.362Z,6.17
2018-07-03T05:06:32.753Z,4.87
2018-07-03T05:09:02.166Z,5.33
2018-07-03T05:11:31.630Z,7.13
2018-07-03T05:14:00.895Z,5.97
2018-07-03T05:16:30.268Z,6.77
2018-07-03T05:18:59.670Z,11.40
2018-07-03T05:21:29.175Z,8.60
2018-07-03T05:23:58.503Z,6.83
2018-07-03T05:26:27.987Z,3.57
2018-07-03T05:28:57.317Z,7.40
2018-07-03T05:31:26.763Z,11.57
2018-07-03T05:33:56.084Z,5.23
2018-07-03T05:36:25.441Z,4.00
2018-07-03T05:38:54.785Z,5.47
2018-07-03T05:41:24.148Z,3.17
2018-07-03T05:43:53.493Z,4.73
2018-07-03T05:46:22.990Z,3.87
2018-07-03T05:48:52.372Z,4.50
2018-07-03T05:51:21.795Z,5.47
2018-07-03T05:53:51.195Z,4.30
2018-07-03T05:56:20.664Z,3.93
2018-07-03T05:58:49.999Z,4.50
2018-07-03T06:01:19.401Z,6.67
2018-07-03T06:03:48.839Z,6.40
2018-07-03T06:06:18.314Z,4.17
2018-07-03T06:08:47.710Z,13.47
2018-07-03T06:11:17.111Z,13.67
2018-07-03T06:13:46.513Z,22.83
2018-07-03T06:16:15.915Z,28.57
2018-07-03T06:18:45.317Z,24.93
2018-07-03T06:21:15.231Z,24.47
2018-07-03T06:23:44.736Z,19.30
2018-07-03T06:26:14.137Z,27.20
2018-07-03T06:28:43.550Z,20.00
2018-07-03T06:31:12.964Z,6.37
2018-07-03T06:33:42.348Z,7.17
2018-07-03T06:36:12.056Z,11.30
2018-07-03T06:38:41.455Z,13.03
2018-07-03T06:41:10.856Z,5.27
2018-07-03T06:43:40.183Z,5.17
2018-07-03T06:46:09.661Z,2.87
2018-07-03T06:48:39.164Z,6.27
2018-07-03T06:51:08.566Z,2.77
2018-07-03T06:53:38.070Z,3.93
2018-07-03T06:56:07.559Z,1.97
2018-07-03T06:58:37.284Z,1.40
2018-07-03T07:01:07.348Z,1.97
2018-07-03T07:03:36.662Z,2.40
2018-07-03T07:06:05.929Z,2.73
2018-07-03T07:08:35.464Z,1.60
2018-07-03T07:11:04.763Z,1.70
2018-07-03T07:13:34.278Z,1.40
2018-07-03T07:16:04.235Z,1.43
2018-07-03T07:18:33.626Z,1.30
2018-07-03T07:21:02.930Z,2.40
2018-07-03T07:23:32.329Z,1.37
2018-07-03T07:26:01.628Z,1.37
2018-07-03T07:28:31.032Z,2.33
2018-07-03T07:31:00.431Z,1.77
2018-07-03T07:33:30.757Z,1.73
2018-07-03T07:36:00.091Z,3.57
2018-07-03T07:38:29.463Z,1.27
2018-07-03T07:40:58.861Z,2.33
2018-07-03T07:43:28.875Z,4.83
2018-07-03T07:45:58.279Z,1.93
2018-07-03T07:48:27.680Z,2.03
2018-07-03T07:50:57.001Z,0.57
2018-07-03T07:53:26.380Z,2.10
2018-07-03T07:55:55.987Z,2.53
2018-07-03T07:58:25.232Z,7.30
2018-07-03T08:00:57.389Z,2.63
2018-07-03T08:03:26.638Z,2.37
2018-07-03T08:05:56.037Z,2.45
2018-07-03T08:08:25.238Z,1.47
2018-07-03T08:10:54.499Z,2.22
2018-07-03T08:13:23.776Z,0.78
2018-07-03T08:15:53.039Z,2.85
2018-07-03T08:18:22.342Z,1.55
2018-07-03T08:20:51.534Z,1.25
2018-07-03T08:23:20.821Z,3.75
2018-07-03T08:25:50.106Z,1.95
2018-07-03T08:28:19.325Z,3.92
2018-07-03T08:30:48.624Z,1.25
2018-07-03T08:33:17.914Z,2.00
2018-07-03T08:35:47.230Z,1.00
2018-07-03T08:38:16.529Z,1.40
2018-07-03T08:40:45.774Z,1.17
2018-07-03T08:43:15.010Z,1.87
2018-07-03T08:45:44.144Z,3.60
2018-07-03T08:48:13.523Z,1.27
2018-07-03T08:50:42.808Z,0.70
2018-07-03T08:53:12.105Z,0.93
2018-07-03T08:55:41.400Z,1.25
2018-07-03T08:58:10.840Z,1.80
2018-07-03T09:00:40.325Z,1.10
2018-07-03T09:03:09.724Z,1.35
2018-07-03T09:05:38.873Z,0.78
2018-07-03T09:08:08.214Z,1.67
2018-07-03T09:10:37.554Z,3.25
2018-07-03T09:13:06.814Z,1.77
2018-07-03T09:15:36.128Z,1.98
2018-07-03T09:18:05.584Z,1.95
2018-07-03T09:20:34.811Z,0.70
2018-07-03T09:23:04.071Z,0.95
2018-07-03T09:25:33.308Z,3.37
2018-07-03T09:28:02.504Z,1.52
2018-07-03T09:30:32.106Z,2.87
2018-07-03T09:33:01.529Z,0.80
2018-07-03T09:35:30.836Z,2.05
2018-07-03T09:38:00.238Z,2.62
2018-07-03T09:40:29.642Z,1.50
2018-07-03T09:42:59.490Z,2.08
2018-07-03T09:45:28.934Z,4.53
2018-07-03T09:47:59.272Z,1.98
2018-07-03T09:50:28.696Z,0.72
2018-07-03T09:52:58.126Z,2.15
2018-07-03T09:55:27.588Z,2.65
2018-07-03T09:57:57.106Z,2.15
2018-07-03T10:00:32.131Z,2.35
2018-07-03T10:03:01.632Z,0.50
2018-07-03T10:05:32.572Z,1.07
2018-07-03T10:08:02.779Z,2.52
2018-07-03T10:10:32.292Z,2.62
2018-07-03T10:13:02.752Z,1.85
2018-07-03T10:15:32.056Z,2.27
2018-07-03T10:18:01.348Z,1.45
2018-07-03T10:20:30.683Z,0.80
2018-07-03T10:23:00.224Z,0.70
2018-07-03T10:25:29.685Z,1.47
2018-07-03T10:27:59.140Z,1.30
2018-07-03T10:30:28.385Z,1.85
2018-07-03T10:32:57.823Z,1.05
2018-07-03T10:35:27.230Z,2.50
2018-07-03T10:37:56.861Z,0.93
2018-07-03T10:40:26.038Z,0.85
2018-07-03T10:42:55.437Z,0.85
2018-07-03T10:45:24.848Z,1.15
2018-07-03T10:47:54.443Z,2.15
2018-07-03T10:50:23.743Z,0.60
2018-07-03T10:52:53.049Z,2.80
2018-07-03T10:55:22.574Z,1.75
2018-07-03T10:57:51.795Z,0.72
2018-07-03T11:00:21.064Z,1.22
2018-07-03T11:02:50.455Z,1.10
2018-07-03T11:05:19.781Z,0.82
2018-07-03T11:07:49.149Z,3.55
2018-07-03T11:10:18.666Z,1.42
2018-07-03T11:12:47.950Z,1.15
2018-07-03T11:15:17.241Z,0.57
2018-07-03T11:17:46.401Z,1.10
2018-07-03T11:20:15.856Z,0.90
2018-07-03T11:22:45.033Z,2.47
2018-07-03T11:25:14.360Z,1.85
2018-07-03T11:27:43.596Z,0.60
2018-07-03T11:30:12.922Z,2.58
2018-07-03T11:32:42.054Z,2.85
2018-07-03T11:35:11.762Z,0.98
2018-07-03T11:37:41.008Z,3.95
2018-07-03T11:40:10.227Z,0.57
2018-07-03T11:42:39.510Z,4.10
2018-07-03T11:45:08.713Z,0.98
2018-07-03T11:47:38.114Z,2.27
2018-07-03T11:50:07.916Z,2.27
2018-07-03T11:52:37.710Z,1.15
2018-07-03T11:55:07.261Z,0.78
2018-07-03T11:57:36.401Z,1.40
2018-07-03T12:00:06.398Z,1.65
2018-07-03T12:02:35.679Z,0.82
2018-07-03T12:05:05.336Z,0.62
2018-07-03T12:07:34.578Z,1.60
2018-07-03T12:10:03.994Z,1.67
2018-07-03T12:12:33.379Z,0.60
2018-07-03T12:15:02.505Z,1.75
2018-07-03T12:17:31.891Z,1.32
2018-07-03T12:20:01.248Z,1.45
2018-07-03T12:22:30.579Z,0.53
2018-07-03T12:24:59.874Z,1.47
2018-07-03T12:27:29.096Z,1.90
2018-07-03T12:29:58.487Z,1.62
2018-07-03T12:32:27.763Z,3.77
2018-07-03T12:34:57.020Z,2.02
2018-07-03T12:37:26.206Z,1.55
2018-07-03T12:39:55.585Z,1.92
2018-07-03T12:42:24.749Z,2.17
2018-07-03T12:44:53.965Z,2.05
2018-07-03T12:47:23.261Z,1.75
2018-07-03T12:49:52.681Z,0.55
2018-07-03T12:52:22.069Z,3.83
2018-07-03T12:54:51.239Z,0.60
2018-07-03T12:57:20.915Z,1.37
2018-07-03T12:59:50.235Z,1.15
2018-07-03T13:02:19.508Z,1.75
2018-07-03T13:04:49.003Z,3.00
2018-07-03T13:07:18.407Z,1.95
2018-07-03T13:09:47.638Z,0.57
2018-07-03T13:12:16.978Z,1.90
2018-07-03T13:14:46.137Z,0.80
2018-07-03T13:17:15.538Z,2.10
2018-07-03T13:19:44.997Z,0.85
2018-07-03T13:22:14.421Z,1.77
2018-07-03T13:24:43.651Z,0.93
2018-07-03T13:27:12.892Z,2.30
2018-07-03T13:29:42.125Z,1.10
2018-07-03T13:32:11.313Z,0.62
2018-07-03T13:34:40.530Z,1.02
2018-07-03T13:37:09.804Z,1.07
2018-07-03T13:39:39.187Z,0.60
2018-07-03T13:42:08.514Z,0.82
2018-07-03T13:44:37.725Z,1.17
2018-07-03T13:47:06.961Z,1.27
2018-07-03T13:49:36.241Z,0.70
2018-07-03T13:52:05.667Z,0.57
2018-07-03T13:54:34.941Z,0.90
2018-07-03T13:57:04.450Z,2.15
2018-07-03T13:59:33.738Z,4.00
2018-07-03T14:02:03.213Z,0.70
2018-07-03T14:04:32.448Z,1.65
2018-07-03T14:07:01.677Z,1.65
2018-07-03T14:09:30.989Z,0.70
2018-07-03T14:12:00.389Z,0.95
2018-07-03T14:14:29.878Z,1.85
2018-07-03T14:16:59.440Z,2.52
2018-07-03T14:19:28.637Z,2.85
2018-07-03T14:21:58.089Z,1.02
2018-07-03T14:24:27.332Z,2.75
2018-07-03T14:26:56.535Z,0.75
2018-07-03T14:29:25.769Z,0.72
2018-07-03T14:31:55.113Z,0.80
2018-07-03T14:34:24.557Z,1.80
2018-07-03T14:36:54.277Z,1.02
2018-07-03T14:39:23.530Z,1.57
2018-07-03T14:41:52.803Z,2.15
2018-07-03T14:44:22.157Z,2.10
2018-07-03T14:46:51.341Z,0.60
2018-07-03T14:49:20.632Z,1.20
2018-07-03T14:51:49.890Z,1.07
2018-07-03T14:54:19.186Z,2.37
2018-07-03T14:56:48.748Z,2.00
2018-07-03T14:59:17.932Z,1.75
2018-07-03T15:01:47.245Z,0.98
2018-07-03T15:04:17.322Z,0.53
2018-07-03T15:06:46.801Z,0.70
2018-07-03T15:09:18.122Z,1.75
2018-07-03T15:11:48.573Z,0.85
2018-07-03T15:14:17.882Z,1.65
2018-07-03T15:16:47.389Z,0.82
2018-07-03T15:19:22.340Z,2.33
2018-07-03T15:21:51.591Z,2.15
2018-07-03T15:24:20.850Z,18.73
2018-07-03T15:26:50.421Z,2.02
2018-07-03T15:29:19.849Z,2.05
2018-07-03T15:31:49.059Z,1.87
2018-07-03T15:34:18.381Z,1.02
2018-07-03T15:36:47.553Z,0.90
2018-07-03T15:39:16.848Z,0.95
2018-07-03T15:41:46.017Z,1.02
2018-07-03T15:44:26.540Z,0.60
2018-07-03T15:46:55.793Z,1.10
2018-07-03T15:49:24.996Z,0.88
2018-07-03T15:51:54.280Z,0.57
2018-07-03T15:54:23.663Z,0.80
2018-07-03T15:56:52.942Z,0.50
2018-07-03T15:59:22.377Z,1.77
2018-07-03T16:01:51.681Z,1.05
2018-07-03T16:05:30.395Z,1.95
2018-07-03T16:09:13.558Z,1.00
2018-07-03T16:11:44.036Z,2.05
2018-07-03T16:14:13.752Z,1.12
2018-07-03T16:16:43.315Z,2.95
2018-07-03T16:19:17.885Z,1.75
2018-07-03T16:21:47.076Z,1.25
2018-07-03T16:24:16.312Z,2.67
2018-07-03T16:26:45.590Z,1.75
2018-07-03T16:29:15.029Z,4.65
2018-07-03T16:31:44.321Z,4.33
2018-07-03T16:34:13.815Z,2.65
2018-07-03T16:36:43.232Z,2.10
2018-07-03T16:39:13.608Z,0.98
2018-07-03T16:41:42.897Z,0.82
2018-07-03T16:44:12.104Z,1.52
2018-07-03T16:46:41.449Z,1.40
2018-07-03T16:49:10.878Z,0.72
2018-07-03T16:51:40.142Z,2.35
2018-07-03T16:54:09.481Z,3.52
2018-07-03T16:56:38.664Z,0.60
2018-07-03T16:59:07.981Z,0.88
2018-07-03T17:01:37.242Z,1.95
2018-07-03T17:04:06.602Z,0.70
2018-07-03T17:06:35.844Z,1.82
2018-07-03T17:09:08.517Z,2.22
2018-07-03T17:11:38.241Z,2.33
2018-07-03T17:14:10.375Z,2.47
2018-07-03T17:16:40.332Z,2.17
2018-07-03T17:19:15.125Z,1.52
2018-07-03T17:21:44.461Z,1.80
2018-07-03T17:24:13.809Z,2.08
2018-07-03T17:26:43.129Z,1.20
2018-07-03T17:29:12.466Z,0.95
2018-07-03T17:31:41.743Z,18.77
2018-07-03T17:34:11.149Z,5.12
2018-07-03T17:36:40.417Z,1.37
2018-07-03T17:39:14.454Z,1.62
2018-07-03T17:41:55.653Z,0.98
2018-07-03T17:45:39.793Z,1.65
2018-07-03T17:48:10.237Z,1.60
2018-07-03T17:50:39.906Z,0.75
2018-07-03T17:53:09.453Z,0.82
2018-07-03T17:55:38.850Z,1.05
2018-07-03T17:58:08.322Z,3.50
2018-07-03T18:00:37.629Z,3.25
2018-07-03T18:03:06.832Z,0.80
2018-07-03T18:05:36.182Z,1.92
2018-07-03T18:08:05.640Z,2.30
2018-07-03T18:10:35.140Z,12.60
2018-07-03T18:13:04.592Z,8.38
2018-07-03T18:15:34.048Z,3.02
2018-07-03T18:18:03.578Z,0.90
2018-07-03T18:20:33.144Z,1.37
2018-07-03T18:23:02.321Z,5.20
2018-07-03T18:25:31.584Z,2.45
2018-07-03T18:28:00.858Z,1.10
2018-07-03T18:30:30.188Z,2.20
2018-07-03T18:33:00.041Z,1.00
2018-07-03T18:35:29.285Z,1.45
2018-07-03T18:37:58.568Z,0.90
2018-07-03T18:40:27.938Z,0.80
2018-07-03T18:42:57.284Z,1.80
2018-07-03T18:45:26.652Z,3.60
2018-07-03T18:47:55.929Z,6.65
2018-07-03T18:50:25.289Z,12.82
2018-07-03T18:52:54.649Z,8.95
2018-07-03T18:55:23.933Z,5.30
2018-07-03T18:57:53.244Z,3.90
2018-07-03T19:00:22.593Z,7.67
2018-07-03T19:02:51.981Z,1.92
2018-07-03T19:05:22.130Z,4.22
2018-07-03T19:07:51.391Z,1.12
2018-07-03T19:10:20.824Z,1.52
2018-07-03T19:12:50.397Z,6.22
2018-07-03T19:15:19.647Z,2.52
2018-07-03T19:17:49.118Z,3.42
2018-07-03T19:20:18.500Z,2.90
2018-07-03T19:22:47.828Z,3.80
2018-07-03T19:25:17.107Z,1.40
2018-07-03T19:27:46.569Z,2.00
2018-07-03T19:30:15.816Z,3.50
2018-07-03T19:32:45.037Z,2.67
2018-07-03T19:35:14.409Z,3.05
2018-07-03T19:37:43.630Z,3.10
2018-07-03T19:40:12.952Z,2.25
2018-07-03T19:43:19.744Z,4.33
2018-07-03T19:45:49.729Z,1.75
2018-07-03T19:48:19.471Z,5.20
2018-07-03T19:50:50.275Z,7.72
2018-07-03T19:53:19.750Z,1.60
2018-07-03T19:55:50.441Z,5.50
2018-07-03T19:58:20.288Z,7.37
2018-07-03T20:00:50.817Z,3.27
2018-07-03T20:03:20.083Z,6.07
2018-07-03T20:05:49.561Z,5.58
2018-07-03T20:08:18.884Z,4.07
2018-07-03T20:10:48.261Z,7.20
2018-07-03T20:13:18.639Z,6.80
2018-07-03T20:15:47.821Z,2.83
2018-07-03T20:18:17.616Z,2.63
2018-07-03T20:20:46.857Z,2.80
2018-07-03T20:23:16.199Z,3.23
2018-07-03T20:25:45.538Z,4.47
2018-07-03T20:28:14.960Z,2.77
2018-07-03T20:30:44.154Z,4.30
2018-07-03T20:33:13.659Z,3.00
2018-07-03T20:35:42.900Z,3.83
2018-07-03T20:38:12.177Z,1.50
2018-07-03T20:40:59.061Z,4.57
2018-07-03T20:43:29.691Z,5.73
2018-07-03T20:46:01.906Z,2.07
2018-07-03T20:48:31.302Z,1.53
2018-07-03T20:51:01.105Z,3.60
2018-07-03T20:53:30.417Z,1.60
2018-07-03T20:55:59.879Z,3.90
2018-07-03T20:58:29.129Z,3.23
2018-07-03T21:00:58.375Z,3.80
2018-07-03T21:03:27.826Z,6.77
2018-07-03T21:05:57.220Z,2.50
2018-07-03T21:08:26.713Z,3.00
2018-07-03T21:10:55.989Z,1.63
2018-07-03T21:13:25.320Z,1.53
2018-07-03T21:15:54.815Z,3.27
2018-07-03T21:18:24.074Z,9.10
2018-07-03T21:20:53.373Z,1.00
2018-07-03T21:23:22.590Z,3.40
2018-07-03T21:25:51.929Z,1.97
2018-07-03T21:28:22.076Z,4.27
2018-07-03T21:30:51.476Z,3.30
2018-07-03T21:33:20.645Z,3.70
2018-07-03T21:35:49.918Z,2.07
2018-07-03T21:38:19.184Z,3.77
2018-07-03T21:40:48.525Z,4.07
2018-07-03T21:43:17.801Z,5.70
2018-07-03T21:45:47.059Z,3.57
2018-07-03T21:48:16.825Z,4.13
2018-07-03T21:50:46.025Z,4.13
2018-07-03T21:53:15.252Z,4.70
2018-07-03T21:55:44.469Z,4.23
2018-07-03T21:58:13.642Z,5.07
2018-07-03T22:00:42.882Z,2.93
2018-07-03T22:03:13.412Z,3.63
2018-07-03T22:05:42.732Z,3.30
2018-07-03T22:08:11.941Z,5.20
2018-07-03T22:10:41.097Z,5.00
2018-07-03T22:13:10.332Z,19.37
2018-07-03T22:15:39.568Z,66.63
2018-07-03T22:18:08.761Z,20.47
2018-07-03T22:20:37.957Z,8.23
2018-07-03T22:23:07.157Z,3.17
2018-07-03T22:25:36.325Z,2.83
2018-07-03T22:28:05.600Z,3.03
2018-07-03T22:30:34.773Z,2.03
2018-07-03T22:33:03.994Z,8.07
2018-07-03T22:35:33.231Z,6.67
2018-07-03T22:38:02.404Z,6.20
2018-07-03T22:40:31.712Z,7.40
2018-07-03T22:43:00.886Z,3.53
2018-07-03T22:45:30.117Z,5.03
2018-07-03T22:47:59.420Z,5.80
2018-07-03T22:50:28.681Z,3.67
2018-07-03T22:52:57.910Z,1.53
2018-07-03T22:55:27.097Z,2.60
2018-07-03T22:57:56.309Z,2.60
2018-07-03T23:00:25.575Z,3.27
2018-07-03T23:02:54.741Z,1.47
2018-07-03T23:05:23.904Z,2.03
2018-07-03T23:07:53.504Z,3.47
2018-07-03T23:10:22.708Z,2.13
2018-07-03T23:12:51.925Z,3.57
2018-07-03T23:15:21.122Z,2.80
2018-07-03T23:17:50.348Z,2.53
2018-07-03T23:20:19.508Z,2.93
2018-07-03T23:22:48.722Z,4.33
2018-07-03T23:25:17.940Z,3.63
2018-07-03T23:27:47.231Z,3.03
2018-07-03T23:30:16.438Z,2.07
2018-07-03T23:32:46.126Z,2.47
2018-07-03T23:35:15.314Z,5.13
2018-07-03T23:37:44.529Z,2.40
2018-07-03T23:40:13.840Z,4.87
2018-07-03T23:42:43.044Z,2.63
2018-07-03T23:45:12.199Z,3.30
2018-07-03T23:47:52.681Z,2.37
2018-07-03T23:50:33.127Z,1.90
2018-07-03T23:53:13.702Z,3.77
2018-07-03T23:55:54.203Z,4.13
2018-07-03T23:58:34.801Z,1.40
